createdAt,value
2023-01-26T00:01:31.176Z,2.39
2023-01-26T00:03:59.414Z,2.13
2023-01-26T00:06:26.660Z,2.04
2023-01-26T00:08:55.339Z,1.96
2023-01-26T00:11:23.767Z,2.11
2023-01-26T00:13:50.633Z,2.07
2023-01-26T00:16:18.993Z,2.12
2023-01-26T00:18:45.667Z,1.85
2023-01-26T00:21:15.416Z,1.63
2023-01-26T00:23:42.316Z,1.91
2023-01-26T00:26:12.844Z,1.89
2023-01-26T00:28:39.585Z,1.93
2023-01-26T00:31:08.405Z,1.93
2023-01-26T00:33:35.087Z,1.94
2023-01-26T00:36:06.393Z,2.02
2023-01-26T00:38:35.252Z,2.01
2023-01-26T00:41:02.231Z,2.06
2023-01-26T00:43:29.067Z,2.11
2023-01-26T00:45:55.643Z,2.00
2023-01-26T00:48:24.919Z,1.94
2023-01-26T00:50:52.601Z,1.93
2023-01-26T00:53:19.606Z,2.01
2023-01-26T00:55:48.994Z,2.06
2023-01-26T00:58:15.477Z,2.09
2023-01-26T01:00:41.977Z,1.86
2023-01-26T01:03:08.788Z,1.73
2023-01-26T01:05:38.322Z,1.76
2023-01-26T01:08:05.470Z,1.86
2023-01-26T01:10:34.539Z,1.68
2023-01-26T01:13:02.687Z,1.83
2023-01-26T01:15:30.966Z,1.69
2023-01-26T01:17:57.457Z,1.73
2023-01-26T01:20:24.051Z,1.89
2023-01-26T01:22:51.324Z,1.73
2023-01-26T01:25:18.112Z,1.69
2023-01-26T01:27:51.801Z,1.76
2023-01-26T01:30:19.886Z,1.76
2023-01-26T01:32:46.379Z,1.88
2023-01-26T01:35:15.131Z,1.77
2023-01-26T01:37:48.772Z,1.93
2023-01-26T01:40:19.292Z,1.94
2023-01-26T01:42:49.160Z,1.93
2023-01-26T01:45:39.455Z,1.88
2023-01-26T01:48:11.919Z,1.92
2023-01-26T01:50:39.538Z,2.01
2023-01-26T01:53:09.242Z,1.88
2023-01-26T01:55:36.702Z,1.96
2023-01-26T01:58:04.664Z,2.07
2023-01-26T02:00:32.984Z,2.03
2023-01-26T02:03:01.987Z,2.02
2023-01-26T02:05:33.379Z,1.95
2023-01-26T02:08:01.539Z,2.10
2023-01-26T02:10:30.159Z,2.17
2023-01-26T02:12:57.194Z,2.06
2023-01-26T02:15:23.885Z,2.14
2023-01-26T02:17:52.955Z,2.23
2023-01-26T02:20:27.610Z,2.33
2023-01-26T02:23:00.915Z,2.30
2023-01-26T02:25:34.898Z,2.29
2023-01-26T02:28:02.863Z,2.35
2023-01-26T02:30:31.403Z,2.39
2023-01-26T02:32:58.396Z,2.36
2023-01-26T02:35:24.961Z,2.37
2023-01-26T02:37:52.779Z,2.26
2023-01-26T02:40:30.344Z,2.27
2023-01-26T02:42:57.332Z,2.33
2023-01-26T02:45:27.803Z,2.20
2023-01-26T02:47:54.282Z,2.34
2023-01-26T02:50:21.003Z,2.30
2023-01-26T02:52:47.451Z,2.34
2023-01-26T02:55:14.079Z,2.39
2023-01-26T02:57:41.267Z,2.46
2023-01-26T03:00:09.988Z,2.40
2023-01-26T03:02:38.563Z,2.40
2023-01-26T03:05:05.286Z,2.46
2023-01-26T03:07:31.781Z,2.60
2023-01-26T03:09:58.371Z,2.35
2023-01-26T03:12:25.048Z,2.38
2023-01-26T03:14:51.781Z,2.40
2023-01-26T03:17:18.251Z,2.47
2023-01-26T03:19:46.112Z,2.41
2023-01-26T03:22:12.656Z,2.47
2023-01-26T03:24:39.259Z,2.37
2023-01-26T03:27:09.505Z,2.53
2023-01-26T03:29:36.019Z,2.48
2023-01-26T03:32:02.529Z,2.39
2023-01-26T03:34:29.385Z,2.51
2023-01-26T03:36:57.380Z,2.52
2023-01-26T03:39:24.011Z,2.56
2023-01-26T03:41:50.623Z,2.56
2023-01-26T03:44:17.110Z,2.54
2023-01-26T03:46:43.780Z,2.55
2023-01-26T03:49:10.643Z,2.59
2023-01-26T03:51:37.339Z,2.59
2023-01-26T03:54:05.463Z,2.57
2023-01-26T03:56:33.150Z,2.45
2023-01-26T03:59:02.197Z,2.57
2023-01-26T04:01:28.669Z,2.60
2023-01-26T04:03:56.854Z,2.61
2023-01-26T04:06:26.791Z,2.46
2023-01-26T04:08:54.917Z,2.55
2023-01-26T04:11:22.997Z,2.71
2023-01-26T04:13:49.628Z,2.67
2023-01-26T04:16:16.383Z,2.66
2023-01-26T04:18:42.859Z,2.63
2023-01-26T04:21:09.463Z,2.68
2023-01-26T04:23:36.141Z,2.70
2023-01-26T04:26:02.664Z,2.62
2023-01-26T04:28:30.539Z,2.52
2023-01-26T04:30:57.083Z,2.66
2023-01-26T04:33:23.579Z,2.70
2023-01-26T04:35:50.036Z,2.76
2023-01-26T04:38:16.546Z,2.76
2023-01-26T04:40:43.327Z,2.70
2023-01-26T04:43:09.792Z,2.71
2023-01-26T04:45:37.651Z,2.52
2023-01-26T04:48:04.735Z,2.62
2023-01-26T04:50:31.230Z,2.66
2023-01-26T04:52:57.974Z,2.61
2023-01-26T04:55:24.482Z,2.63
2023-01-26T04:57:50.947Z,2.71
2023-01-26T05:00:18.056Z,2.76
2023-01-26T05:02:45.909Z,2.69
2023-01-26T05:05:12.611Z,2.84
2023-01-26T05:07:39.130Z,2.76
2023-01-26T05:10:06.333Z,2.77
2023-01-26T05:12:35.943Z,2.55
2023-01-26T05:15:02.480Z,2.61
2023-01-26T05:17:29.019Z,2.71
2023-01-26T05:19:56.886Z,2.81
2023-01-26T05:22:23.814Z,2.70
2023-01-26T05:24:50.305Z,2.63
2023-01-26T05:27:16.805Z,2.69
2023-01-26T05:29:43.458Z,2.69
2023-01-26T05:32:09.940Z,2.77
2023-01-26T05:34:36.434Z,2.81
2023-01-26T05:37:04.686Z,2.79
2023-01-26T05:39:31.422Z,2.85
2023-01-26T05:41:57.975Z,2.71
2023-01-26T05:44:24.503Z,2.73
2023-01-26T05:46:51.691Z,2.71
2023-01-26T05:49:18.291Z,2.76
2023-01-26T05:51:58.289Z,2.79
2023-01-26T05:54:27.530Z,2.71
2023-01-26T05:56:55.260Z,2.36
2023-01-26T05:59:33.991Z,2.43
2023-01-26T06:02:01.117Z,2.50
2023-01-26T06:04:28.662Z,2.49
2023-01-26T06:07:06.168Z,2.45
2023-01-26T06:09:34.677Z,2.70
2023-01-26T06:12:05.628Z,2.56
2023-01-26T06:14:32.170Z,2.59
2023-01-26T06:16:58.795Z,2.47
2023-01-26T06:19:25.782Z,2.50
2023-01-26T06:22:01.128Z,2.48
2023-01-26T06:24:28.113Z,2.49
2023-01-26T06:27:19.275Z,2.63
2023-01-26T06:29:46.231Z,2.68
2023-01-26T06:32:18.706Z,2.72
2023-01-26T06:34:45.396Z,2.75
2023-01-26T06:37:14.034Z,2.76
2023-01-26T06:39:40.593Z,2.68
2023-01-26T06:42:07.819Z,2.77
2023-01-26T06:44:35.670Z,2.91
2023-01-26T06:47:02.207Z,2.92
2023-01-26T06:49:28.739Z,2.72
2023-01-26T06:51:58.041Z,2.88
2023-01-26T06:54:24.853Z,2.87
2023-01-26T06:56:51.521Z,2.93
2023-01-26T06:59:17.965Z,2.98
2023-01-26T07:01:47.087Z,2.96
2023-01-26T07:04:13.694Z,2.91
2023-01-26T07:06:40.265Z,2.84
2023-01-26T07:09:07.031Z,2.85
2023-01-26T07:11:33.585Z,2.92
2023-01-26T07:14:00.192Z,3.01
2023-01-26T07:16:26.867Z,3.01
2023-01-26T07:18:54.934Z,2.93
2023-01-26T07:21:21.721Z,2.91
2023-01-26T07:23:48.726Z,2.99
2023-01-26T07:26:15.562Z,2.93
2023-01-26T07:28:42.160Z,3.11
2023-01-26T07:31:10.714Z,3.17
2023-01-26T07:33:37.687Z,3.17
2023-01-26T07:36:06.818Z,3.14
2023-01-26T07:38:34.717Z,3.16
2023-01-26T07:41:07.673Z,3.27
2023-01-26T07:43:34.683Z,3.27
2023-01-26T07:46:01.481Z,3.26
2023-01-26T07:48:28.079Z,3.34
2023-01-26T07:50:54.630Z,3.29
2023-01-26T07:53:22.689Z,3.37
2023-01-26T07:55:49.342Z,3.38
2023-01-26T07:58:21.064Z,3.36
2023-01-26T08:00:47.521Z,3.38
2023-01-26T08:03:14.812Z,3.35
2023-01-26T08:05:41.429Z,3.37
2023-01-26T08:08:07.999Z,3.44
2023-01-26T08:10:36.156Z,3.53
2023-01-26T08:13:02.740Z,3.49
2023-01-26T08:15:30.190Z,3.27
2023-01-26T08:17:56.718Z,3.42
2023-01-26T08:20:23.313Z,3.45
2023-01-26T08:22:49.850Z,3.57
2023-01-26T08:25:16.621Z,3.65
2023-01-26T08:27:44.629Z,3.64
2023-01-26T08:30:12.498Z,3.74
2023-01-26T08:32:39.290Z,3.70
2023-01-26T08:35:06.599Z,3.78
2023-01-26T08:37:33.684Z,3.77
2023-01-26T08:40:00.181Z,3.81
2023-01-26T08:42:26.843Z,3.96
2023-01-26T08:44:54.786Z,3.73
2023-01-26T08:47:21.372Z,3.73
2023-01-26T08:49:47.953Z,3.89
2023-01-26T08:52:16.897Z,4.00
2023-01-26T08:54:50.064Z,3.99
2023-01-26T08:57:20.596Z,3.99
2023-01-26T08:59:47.257Z,4.03
2023-01-26T09:02:15.385Z,3.96
2023-01-26T09:04:42.060Z,3.76
2023-01-26T09:07:09.152Z,3.92
2023-01-26T09:09:35.987Z,3.94
2023-01-26T09:12:02.536Z,3.76
2023-01-26T09:14:29.141Z,3.72
2023-01-26T09:16:56.108Z,3.85
2023-01-26T09:19:23.995Z,3.91
2023-01-26T09:21:53.817Z,3.84
2023-01-26T09:24:20.599Z,4.16
2023-01-26T09:26:47.145Z,3.91
2023-01-26T09:29:13.776Z,3.86
2023-01-26T09:31:40.351Z,4.00
2023-01-26T09:34:07.155Z,4.16
2023-01-26T09:36:36.740Z,4.14
2023-01-26T09:39:03.342Z,4.18
2023-01-26T09:41:44.521Z,4.13
2023-01-26T09:44:18.527Z,4.35
2023-01-26T09:47:02.519Z,4.29
2023-01-26T09:49:34.392Z,4.17
2023-01-26T09:52:08.703Z,4.21
2023-01-26T09:54:41.888Z,4.30
2023-01-26T09:57:13.293Z,4.32
2023-01-26T09:59:46.122Z,4.19
2023-01-26T10:02:26.100Z,4.08
2023-01-26T10:04:58.467Z,4.11
2023-01-26T10:07:26.329Z,4.39
2023-01-26T10:09:53.739Z,4.44
2023-01-26T10:12:24.359Z,4.53
2023-01-26T10:14:55.385Z,4.65
2023-01-26T10:17:30.568Z,4.62
2023-01-26T10:20:02.353Z,4.31
2023-01-26T10:22:36.076Z,4.50
2023-01-26T10:25:13.680Z,4.58
2023-01-26T10:27:40.423Z,4.58
2023-01-26T10:30:12.398Z,4.58
2023-01-26T10:32:42.061Z,4.53
2023-01-26T10:35:16.759Z,4.33
2023-01-26T10:37:44.785Z,4.45
2023-01-26T10:40:12.253Z,4.42
2023-01-26T10:42:40.504Z,4.33
2023-01-26T10:45:24.953Z,4.40
2023-01-26T10:48:14.141Z,4.44
2023-01-26T10:50:40.728Z,4.53
2023-01-26T10:53:16.098Z,4.36
2023-01-26T10:55:42.834Z,4.44
2023-01-26T10:58:41.743Z,4.57
2023-01-26T11:01:09.721Z,4.60
2023-01-26T11:03:36.257Z,4.66
2023-01-26T11:06:07.757Z,4.74
2023-01-26T11:08:38.767Z,4.61
2023-01-26T11:11:06.508Z,4.64
2023-01-26T11:13:33.348Z,4.78
2023-01-26T11:16:12.634Z,4.77
2023-01-26T11:18:48.518Z,5.01
2023-01-26T11:21:20.129Z,4.86
2023-01-26T11:23:59.539Z,4.99
2023-01-26T11:26:52.635Z,4.71
2023-01-26T11:29:50.476Z,4.98
2023-01-26T11:32:26.543Z,4.87
2023-01-26T11:35:06.961Z,4.76
2023-01-26T11:37:41.275Z,4.75
2023-01-26T11:40:23.411Z,4.95
2023-01-26T11:43:02.996Z,4.97
2023-01-26T11:45:36.313Z,4.90
2023-01-26T11:48:17.116Z,4.84
2023-01-26T11:51:26.623Z,4.68
2023-01-26T11:58:06.473Z,3.85
2023-01-26T12:00:40.280Z,3.83
2023-01-26T12:03:17.149Z,3.84
2023-01-26T12:06:16.503Z,3.77
2023-01-26T12:08:48.643Z,3.68
2023-01-26T12:11:19.732Z,3.63
2023-01-26T12:13:55.004Z,3.86
2023-01-26T12:16:31.133Z,4.09
2023-01-26T12:19:11.560Z,4.22
2023-01-26T12:21:41.027Z,4.28
2023-01-26T12:24:35.775Z,4.05
2023-01-26T12:27:02.850Z,4.40
2023-01-26T12:29:38.291Z,4.48
2023-01-26T12:32:10.894Z,4.05
2023-01-26T12:34:37.672Z,4.22
2023-01-26T12:37:22.469Z,4.26
2023-01-26T12:39:58.357Z,4.35
2023-01-26T12:42:37.426Z,4.34
2023-01-26T12:45:09.241Z,4.72
2023-01-26T12:47:40.093Z,4.72
2023-01-26T12:50:16.637Z,4.53
2023-01-26T12:52:49.167Z,4.67
2023-01-26T12:55:19.401Z,4.98
2023-01-26T12:57:52.040Z,5.03
2023-01-26T13:00:23.824Z,4.78
2023-01-26T13:02:53.766Z,4.69
2023-01-26T13:05:25.942Z,4.53
2023-01-26T13:07:53.134Z,4.39
2023-01-26T13:10:27.705Z,4.56
2023-01-26T13:13:02.204Z,4.44
2023-01-26T13:15:31.956Z,4.36
2023-01-26T13:18:00.283Z,4.57
2023-01-26T13:20:46.057Z,4.06
2023-01-26T13:23:38.913Z,3.58
2023-01-26T13:26:17.372Z,3.52
2023-01-26T13:28:44.446Z,3.48
2023-01-26T13:31:13.709Z,3.74
2023-01-26T13:33:41.653Z,3.25
2023-01-26T13:36:14.781Z,3.45
2023-01-26T13:38:46.034Z,3.16
2023-01-26T13:41:18.664Z,3.24
2023-01-26T13:43:51.714Z,3.33
2023-01-26T13:46:26.899Z,3.54
2023-01-26T13:48:54.746Z,3.61
2023-01-26T13:51:24.627Z,3.40
2023-01-26T13:53:58.641Z,3.36
2023-01-26T13:56:28.333Z,3.50
2023-01-26T13:59:04.269Z,3.46
2023-01-26T14:01:32.254Z,3.27
2023-01-26T14:04:06.937Z,3.29
2023-01-26T14:06:36.222Z,3.36
2023-01-26T14:09:04.813Z,3.27
2023-01-26T14:11:33.252Z,3.22
2023-01-26T14:14:01.481Z,3.48
2023-01-26T14:16:29.987Z,3.39
2023-01-26T14:19:07.015Z,3.24
2023-01-26T14:21:45.308Z,3.32
2023-01-26T14:24:12.822Z,2.81
2023-01-26T14:26:40.987Z,2.82
2023-01-26T14:29:11.659Z,3.06
2023-01-26T14:31:38.242Z,3.18
2023-01-26T14:34:10.039Z,3.16
2023-01-26T14:36:36.985Z,3.25
2023-01-26T14:39:15.680Z,3.18
2023-01-26T14:41:45.847Z,3.18
2023-01-26T14:44:17.165Z,3.54
2023-01-26T14:46:53.474Z,3.74
2023-01-26T14:49:25.472Z,3.76
2023-01-26T14:51:56.448Z,3.40
2023-01-26T14:54:28.440Z,3.05
2023-01-26T14:56:56.297Z,3.45
2023-01-26T14:59:28.629Z,3.28
2023-01-26T15:02:04.152Z,3.72
2023-01-26T15:04:38.604Z,3.43
2023-01-26T15:07:35.079Z,3.48
2023-01-26T15:10:02.360Z,3.49
2023-01-26T15:12:33.963Z,3.58
2023-01-26T15:15:01.723Z,3.57
2023-01-26T15:17:37.998Z,3.46
2023-01-26T15:20:11.790Z,3.38
2023-01-26T15:22:38.474Z,3.38
2023-01-26T15:25:16.972Z,3.15
2023-01-26T15:27:50.978Z,3.38
2023-01-26T15:30:19.779Z,3.48
2023-01-26T15:32:46.523Z,3.51
2023-01-26T15:35:23.612Z,3.59
2023-01-26T15:38:00.208Z,3.86
2023-01-26T15:40:26.748Z,4.07
2023-01-26T15:43:05.491Z,3.93
2023-01-26T15:45:33.023Z,3.70
2023-01-26T15:47:59.697Z,3.88
2023-01-26T15:50:28.501Z,3.88
2023-01-26T15:52:55.160Z,4.26
2023-01-26T15:55:26.483Z,4.25
2023-01-26T15:57:53.057Z,4.14
2023-01-26T16:00:19.925Z,3.97
2023-01-26T16:02:46.474Z,4.15
2023-01-26T16:05:15.922Z,4.43
2023-01-26T16:07:43.778Z,4.43
2023-01-26T16:10:11.256Z,4.23
2023-01-26T16:12:37.897Z,4.30
2023-01-26T16:15:22.347Z,4.31
2023-01-26T16:17:48.916Z,4.26
2023-01-26T16:20:15.635Z,4.26
2023-01-26T16:22:42.290Z,4.12
2023-01-26T16:25:21.227Z,4.09
2023-01-26T16:27:47.838Z,4.19
2023-01-26T16:30:14.615Z,4.35
2023-01-26T16:32:41.332Z,4.43
2023-01-26T16:35:12.387Z,4.52
2023-01-26T16:37:40.722Z,4.48
2023-01-26T16:40:11.205Z,4.44
2023-01-26T16:42:42.177Z,4.23
2023-01-26T16:45:15.308Z,4.22
2023-01-26T16:47:41.888Z,4.23
2023-01-26T16:50:09.731Z,4.19
2023-01-26T16:52:36.229Z,4.33
2023-01-26T16:55:02.911Z,4.17
2023-01-26T16:57:29.437Z,4.29
2023-01-26T16:59:57.518Z,4.46
2023-01-26T17:02:26.447Z,4.39
2023-01-26T17:04:53.833Z,4.46
2023-01-26T17:07:20.716Z,4.35
2023-01-26T17:09:47.188Z,4.50
2023-01-26T17:12:13.712Z,4.68
2023-01-26T17:14:40.769Z,4.73
2023-01-26T17:17:09.714Z,4.45
2023-01-26T17:19:36.204Z,4.59
2023-01-26T17:22:02.739Z,4.78
2023-01-26T17:24:29.434Z,4.81
2023-01-26T17:26:56.000Z,4.75
2023-01-26T17:29:22.510Z,4.69
2023-01-26T17:31:49.175Z,4.92
2023-01-26T17:34:17.106Z,4.85
2023-01-26T17:36:45.772Z,4.91
2023-01-26T17:39:12.669Z,5.04
2023-01-26T17:48:50.097Z,5.27
2023-01-26T17:51:19.892Z,5.41
2023-01-26T17:53:48.197Z,5.58
2023-01-26T17:56:17.060Z,5.59
2023-01-26T17:58:49.789Z,5.75
2023-01-26T18:01:16.806Z,5.80
2023-01-26T18:03:47.988Z,5.85
2023-01-26T18:06:16.351Z,5.83
2023-01-26T18:09:36.387Z,5.78
2023-01-26T18:12:04.981Z,5.96
2023-01-26T18:14:34.309Z,6.06
2023-01-26T18:17:00.908Z,6.16
2023-01-26T18:19:27.765Z,6.22
2023-01-26T18:21:54.407Z,6.25
2023-01-26T18:24:21.092Z,6.34
2023-01-26T18:26:51.667Z,6.42
2023-01-26T18:29:21.238Z,6.39
2023-01-26T18:31:47.877Z,6.45
2023-01-26T18:34:15.781Z,6.50
2023-01-26T18:36:42.544Z,6.49
2023-01-26T18:39:17.397Z,6.34
2023-01-26T18:41:43.951Z,6.43
2023-01-26T18:44:10.757Z,6.45
2023-01-26T18:46:38.999Z,6.46
2023-01-26T18:49:06.595Z,6.39
2023-01-26T19:01:52.725Z,6.50
2023-01-26T19:04:24.418Z,6.47
2023-01-26T19:06:57.042Z,6.50
2023-01-26T19:09:45.602Z,6.47
2023-01-26T19:12:45.779Z,6.49
2023-01-26T19:15:21.064Z,6.56
2023-01-26T19:34:57.826Z,6.26
2023-01-26T19:47:18.434Z,6.49
2023-01-26T19:53:44.534Z,6.46
2023-01-26T19:56:14.977Z,6.61
2023-01-26T19:58:42.161Z,6.62
2023-01-26T20:01:54.745Z,6.49
2023-01-26T20:27:43.680Z,6.40
2023-01-26T20:31:06.422Z,6.47
2023-01-26T20:37:58.510Z,6.36
2023-01-26T22:51:09.841Z,4.80
2023-01-26T23:01:08.870Z,5.08
